Time;durP1;ratioP1;P1;durP2;ratioP2;P2;SDS_P1;SDS_P2;PMS_P1;PMS_P2;Temp;Humidity;BMP_temperature;BMP_pressure;BME280_temperature;BME280_humidity;BME280_pressure;Samples;Min_cycle;Max_cycle;Signal;HPM_P1;HPM_P2
2022/12/09 00:01:19;;;;;;;52.95;26.40;;;;;;;6.78;100.00;100208.69;4934755;29;20398;-84
2022/12/09 00:03:48;;;;;;;43.55;25.48;;;;;;;6.68;100.00;100191.25;4936041;29;20052;-84
2022/12/09 00:06:20;;;;;;;46.05;25.52;;;;;;;6.74;100.00;100199.44;4936130;29;20406;-84
2022/12/09 00:08:49;;;;;;;48.10;25.27;;;;;;;6.70;100.00;100189.06;4935453;29;20051;-84
2022/12/09 00:11:19;;;;;;;47.67;25.88;;;;;;;6.66;100.00;100189.88;4935931;29;20044;-84
2022/12/09 00:13:48;;;;;;;40.40;25.33;;;;;;;6.69;100.00;100190.16;4932000;29;20052;-83
2022/12/09 00:16:17;;;;;;;47.67;26.10;;;;;;;6.60;100.00;100183.56;4935749;29;20046;-85
2022/12/09 00:18:45;;;;;;;48.92;25.23;;;;;;;6.60;100.00;100183.56;4949455;29;20044;-84
2022/12/09 00:21:25;;;;;;;44.47;24.88;;;;;;;6.52;100.00;100192.22;4934467;29;20058;-84
2022/12/09 00:23:54;;;;;;;40.88;23.48;;;;;;;6.51;100.00;100179.72;4935671;29;20482;-84
2022/12/09 00:26:23;;;;;;;39.05;24.80;;;;;;;6.53;100.00;100182.97;4935763;29;20048;-84
2022/12/09 00:28:52;;;;;;;43.45;24.65;;;;;;;6.52;100.00;100181.34;4934851;29;20056;-84
2022/12/09 00:31:23;;;;;;;45.50;24.10;;;;;;;6.62;100.00;100181.41;4936118;29;20043;-85
2022/12/09 00:33:54;;;;;;;38.83;23.20;;;;;;;6.65;100.00;100183.59;4935353;29;20055;-85
2022/12/09 00:36:23;;;;;;;43.30;25.08;;;;;;;6.57;100.00;100179.50;4933987;29;20058;-84
2022/12/09 00:38:53;;;;;;;43.42;23.25;;;;;;;6.59;100.00;100177.31;4931973;29;20051;-84
2022/12/09 00:41:21;;;;;;;41.90;25.25;;;;;;;6.54;100.00;100173.75;4934344;29;20399;-84
2022/12/09 00:43:50;;;;;;;40.95;24.05;;;;;;;6.66;100.00;100185.25;4933737;29;20054;-84
2022/12/09 00:46:18;;;;;;;47.30;23.70;;;;;;;6.67;100.00;100180.63;4934661;29;20044;-84
2022/12/09 00:48:46;;;;;;;37.92;23.30;;;;;;;6.65;100.00;100185.50;4924057;29;20075;-84
2022/12/09 00:51:17;;;;;;;40.15;22.63;;;;;;;6.58;100.00;100178.41;4916225;29;20047;-84
2022/12/09 00:53:46;;;;;;;38.67;22.48;;;;;;;6.61;100.00;100187.94;4929645;29;20057;-84
2022/12/09 00:56:14;;;;;;;39.03;23.42;;;;;;;6.68;100.00;100188.53;4934791;29;20410;-85
2022/12/09 00:58:42;;;;;;;42.15;23.50;;;;;;;6.71;100.00;100185.25;4934652;29;20102;-84
2022/12/09 01:01:10;;;;;;;35.75;21.17;;;;;;;6.62;100.00;100181.41;4935056;29;20052;-84
2022/12/09 01:03:38;;;;;;;41.00;21.35;;;;;;;6.35;100.00;100182.31;4934592;29;20044;-83
2022/12/09 01:06:11;;;;;;;37.72;20.50;;;;;;;6.38;100.00;100184.53;4935167;29;20047;-83
2022/12/09 01:08:39;;;;;;;33.92;21.58;;;;;;;6.35;100.00;100186.97;4933380;29;20063;-82
2022/12/09 01:11:12;;;;;;;41.72;22.92;;;;;;;6.40;100.00;100181.56;4934478;29;20052;-83
2022/12/09 01:13:40;;;;;;;36.40;21.67;;;;;;;6.30;100.00;100179.56;4934360;29;20043;-83
2022/12/09 01:16:24;;;;;;;39.70;23.00;;;;;;;6.24;100.00;100180.59;4934822;29;20051;-83
2022/12/09 01:18:56;;;;;;;36.78;23.02;;;;;;;6.38;100.00;100176.38;4934266;29;20407;-84
2022/12/09 01:21:25;;;;;;;40.95;23.60;;;;;;;6.40;100.00;100171.50;4949570;29;20047;-83
2022/12/09 01:23:53;;;;;;;36.58;22.33;;;;;;;6.39;100.00;100172.56;4934780;29;20051;-83
2022/12/09 01:26:21;;;;;;;37.15;22.00;;;;;;;6.43;100.00;100165.53;4932173;29;20043;-83
2022/12/09 01:28:51;;;;;;;41.78;23.23;;;;;;;6.27;100.00;100170.03;4932854;29;20044;-83
2022/12/09 01:31:21;;;;;;;37.85;21.77;;;;;;;6.24;100.00;100164.31;4935027;29;20048;-83
2022/12/09 01:33:50;;;;;;;47.80;23.55;;;;;;;6.36;100.00;100162.22;4934683;29;20040;-83
2022/12/09 01:36:21;;;;;;;43.15;24.00;;;;;;;6.35;100.00;100157.88;4933792;29;20522;-84
2022/12/09 01:38:50;;;;;;;39.15;22.30;;;;;;;6.28;100.00;100154.56;4933901;29;20050;-83
2022/12/09 01:41:20;;;;;;;41.00;22.65;;;;;;;6.29;100.00;100145.31;4934888;29;20052;-84
2022/12/09 01:44:13;;;;;;;40.95;23.00;;;;;;;6.38;100.00;100148.38;4933265;29;20494;-83
2022/12/09 01:46:43;;;;;;;40.92;23.85;;;;;;;6.36;100.00;100143.19;4934863;29;20473;-84
2022/12/09 01:49:21;;;;;;;43.95;23.33;;;;;;;6.38;100.00;100141.03;4934205;29;20058;-83
2022/12/09 01:51:57;;;;;;;46.78;25.00;;;;;;;6.52;100.00;100143.28;4934934;29;20055;-83
2022/12/09 01:54:25;;;;;;;39.47;23.38;;;;;;;6.40;100.00;100136.16;4935741;29;20043;-83
2022/12/09 01:56:54;;;;;;;35.20;22.13;;;;;;;6.37;100.00;100135.88;4937348;29;20043;-83
2022/12/09 01:59:23;;;;;;;37.22;22.67;;;;;;;6.42;100.00;100119.59;4936751;29;20252;-83
2022/12/09 02:01:56;;;;;;;37.63;22.52;;;;;;;6.47;100.00;100125.06;4937215;29;20043;-84
2022/12/09 02:04:27;;;;;;;37.53;22.98;;;;;;;6.49;100.00;100117.44;4938387;29;20402;-83
2022/12/09 02:06:58;;;;;;;36.03;22.73;;;;;;;6.52;100.00;100113.38;4912251;29;20048;-83
2022/12/09 02:09:27;;;;;;;39.08;21.80;;;;;;;6.49;100.00;100103.06;4932539;29;20509;-83
2022/12/09 02:12:11;;;;;;;37.35;22.05;;;;;;;6.49;100.00;100092.97;4937036;29;20043;-83
2022/12/09 02:14:46;;;;;;;34.03;21.58;;;;;;;6.48;100.00;100098.69;4936243;29;20036;-83
2022/12/09 02:17:39;;;;;;;34.70;20.55;;;;;;;6.62;100.00;100094.41;4936508;29;20039;-83
2022/12/09 02:20:33;;;;;;;34.67;20.52;;;;;;;6.58;100.00;100096.84;4937025;29;20052;-83
2022/12/09 02:23:18;;;;;;;38.95;22.38;;;;;;;6.59;100.00;100090.31;4952856;29;20062;-84
2022/12/09 02:25:58;;;;;;;38.33;21.70;;;;;;;6.53;100.00;100085.94;4937934;29;20047;-84
2022/12/09 02:28:54;;;;;;;34.25;20.30;;;;;;;6.47;100.00;100080.72;4936205;29;20046;-83
2022/12/09 02:31:26;;;;;;;37.67;20.27;;;;;;;6.37;100.00;100066.03;4936071;29;20521;-83
2022/12/09 02:34:16;;;;;;;36.88;21.15;;;;;;;6.37;100.00;100060.59;4937232;29;20407;-83
2022/12/09 02:37:03;;;;;;;34.03;20.75;;;;;;;6.37;100.00;100066.03;4936581;29;20059;-83
2022/12/09 02:39:41;;;;;;;33.50;19.48;;;;;;;6.42;100.00;100063.34;4936242;29;20516;-83
2022/12/09 02:42:14;;;;;;;37.38;20.05;;;;;;;6.43;100.00;100055.97;4936212;29;20047;-83
2022/12/09 02:44:48;;;;;;;29.58;18.75;;;;;;;6.39;100.00;100057.59;4936535;29;20394;-83
2022/12/09 02:47:22;;;;;;;34.97;19.05;;;;;;;6.38;100.00;100051.34;4934985;29;20482;-85
2022/12/09 02:49:56;;;;;;;33.08;18.88;;;;;;;6.41;100.00;100045.38;4946025;29;20486;-84
2022/12/09 02:52:24;;;;;;;28.98;17.67;;;;;;;6.40;100.00;100043.75;4936923;29;20043;-84
2022/12/09 02:54:52;;;;;;;35.40;19.65;;;;;;;6.50;100.00;100036.72;4936091;29;20486;-84
2022/12/09 02:57:29;;;;;;;36.33;20.00;;;;;;;6.47;100.00;100029.09;4936411;29;20044;-84
2022/12/09 02:59:57;;;;;;;34.17;20.75;;;;;;;6.40;100.00;100032.88;4920361;29;20062;-84
2022/12/09 03:02:35;;;;;;;35.05;20.67;;;;;;;6.42;100.00;100025.28;4936825;29;20048;-84
2022/12/09 03:05:20;;;;;;;39.03;21.73;;;;;;;6.41;100.00;100020.09;4937051;29;20056;-84
2022/12/09 03:08:16;;;;;;;40.90;22.27;;;;;;;6.45;100.00;100013.88;4936951;29;20063;-84
2022/12/09 03:10:52;;;;;;;37.35;21.00;;;;;;;6.47;100.00;100010.88;4936968;29;20513;-84
2022/12/09 03:13:46;;;;;;;29.23;18.77;;;;;;;6.55;100.00;100010.34;4937732;29;20048;-84
2022/12/09 03:16:29;;;;;;;33.72;19.52;;;;;;;6.55;100.00;100004.13;4936537;29;20059;-84
2022/12/09 03:19:02;;;;;;;37.28;20.30;;;;;;;6.53;100.00;100000.84;4937103;29;20059;-84
2022/12/09 03:21:34;;;;;;;33.75;18.60;;;;;;;6.49;100.00;99989.69;4936508;29;20051;-84
2022/12/09 03:24:06;;;;;;;33.88;19.33;;;;;;;6.40;100.00;99983.16;4935115;29;20125;-84
2022/12/09 03:26:37;;;;;;;31.92;20.48;;;;;;;6.49;100.00;99976.09;4936917;29;20056;-84
2022/12/09 03:29:15;;;;;;;30.30;18.80;;;;;;;6.48;100.00;99973.63;4936920;29;20070;-84
2022/12/09 03:31:45;;;;;;;32.90;17.88;;;;;;;6.53;100.00;99979.09;4936206;29;20055;-83
2022/12/09 03:34:18;;;;;;;28.75;18.35;;;;;;;6.45;100.00;99975.81;4936008;29;20390;-83
2022/12/09 03:36:50;;;;;;;23.33;16.50;;;;;;;6.44;100.00;99965.19;4936290;29;20498;-84
2022/12/09 03:39:23;;;;;;;23.23;15.25;;;;;;;6.32;100.00;99965.44;4936749;29;20054;-84
2022/12/09 03:41:56;;;;;;;24.13;14.80;;;;;;;6.22;100.00;99966.22;4936670;29;20055;-84
2022/12/09 03:45:08;;;;;;;25.63;13.40;;;;;;;6.27;100.00;99970.84;4935893;29;20050;-83
2022/12/09 03:47:37;;;;;;;22.77;14.40;;;;;;;6.33;100.00;99972.50;4934225;29;20067;-83
2022/12/09 03:50:07;;;;;;;20.70;12.25;;;;;;;6.31;100.00;99966.53;4936366;29;20056;-84
2022/12/09 03:52:38;;;;;;;17.38;11.48;;;;;;;6.27;100.00;99951.84;4935868;29;20055;-83
2022/12/09 03:55:35;;;;;;;19.77;11.52;;;;;;;6.13;100.00;99936.03;4936147;29;20047;-83
2022/12/09 03:58:05;;;;;;;18.58;12.10;;;;;;;6.16;100.00;99937.41;4930489;29;20066;-83
2022/12/09 04:00:37;;;;;;;16.65;11.13;;;;;;;6.20;100.00;99932.25;4935055;29;20051;-84
2022/12/09 04:03:06;;;;;;;17.17;10.68;;;;;;;6.14;100.00;99926.78;4935699;29;20402;-84
2022/12/09 04:05:35;;;;;;;19.33;11.23;;;;;;;6.21;100.00;99915.66;4935005;29;20051;-83
2022/12/09 04:08:03;;;;;;;17.83;11.27;;;;;;;6.29;100.00;99917.06;4936145;29;20059;-83
2022/12/09 04:10:31;;;;;;;19.52;10.88;;;;;;;6.37;100.00;99919.25;4933980;29;20055;-83
2022/12/09 04:12:59;;;;;;;19.08;11.65;;;;;;;6.44;100.00;99917.09;4935008;29;20493;-83
2022/12/09 04:15:27;;;;;;;20.58;11.68;;;;;;;6.52;100.00;99920.38;4935141;29;20051;-83
2022/12/09 04:17:55;;;;;;;19.45;11.10;;;;;;;6.54;100.00;99921.75;4933399;29;20052;-83
2022/12/09 04:20:23;;;;;;;18.88;10.73;;;;;;;6.55;100.00;99919.84;4928129;29;20044;-83
2022/12/09 04:22:50;;;;;;;16.83;10.27;;;;;;;6.32;100.00;99914.59;4933849;29;20058;-83
2022/12/09 04:25:18;;;;;;;17.70;10.48;;;;;;;6.29;100.00;99909.72;4928552;29;20048;-83
2022/12/09 04:27:48;;;;;;;13.77;9.27;;;;;;;6.33;100.00;99893.69;4917228;29;20056;-83
2022/12/09 04:30:16;;;;;;;17.60;9.43;;;;;;;6.28;100.00;99888.25;4917142;29;20052;-84
2022/12/09 04:32:44;;;;;;;16.00;9.32;;;;;;;6.29;100.00;99893.41;4932281;29;20048;-84
2022/12/09 04:35:13;;;;;;;18.23;10.05;;;;;;;6.25;100.00;99897.75;4935648;29;20058;-84
2022/12/09 04:37:41;;;;;;;16.38;9.73;;;;;;;6.12;100.00;99885.47;4935699;29;20060;-84
2022/12/09 04:40:09;;;;;;;12.90;8.45;;;;;;;6.09;100.00;99890.63;4935742;29;20054;-84
2022/12/09 04:42:38;;;;;;;15.05;9.13;;;;;;;6.18;100.00;99883.59;4933860;29;20410;-83
2022/12/09 04:45:06;;;;;;;13.18;8.00;;;;;;;6.12;100.00;99887.41;4935558;29;20051;-83
2022/12/09 04:47:34;;;;;;;12.40;8.60;;;;;;;6.05;100.00;99874.88;4935521;29;20398;-84
2022/12/09 04:50:04;;;;;;;14.98;10.00;;;;;;;6.11;100.00;99886.56;4935390;29;20048;-84
2022/12/09 04:52:33;;;;;;;14.80;8.82;;;;;;;6.14;100.00;99877.91;4935351;29;20063;-84
2022/12/09 04:55:02;;;;;;;12.18;8.77;;;;;;;6.17;100.00;99877.34;4934445;29;20510;-84
2022/12/09 04:57:29;;;;;;;13.02;8.43;;;;;;;6.24;100.00;99863.50;4933311;29;20082;-84
2022/12/09 04:59:57;;;;;;;13.98;8.85;;;;;;;6.11;100.00;99867.56;4934611;29;20056;-84
2022/12/09 05:02:25;;;;;;;12.20;8.48;;;;;;;6.11;100.00;99872.19;4932950;29;20051;-84
2022/12/09 05:04:54;;;;;;;16.15;9.30;;;;;;;6.23;100.00;99874.66;4934059;29;20402;-83
2022/12/09 05:07:23;;;;;;;14.25;9.57;;;;;;;6.20;100.00;99869.75;4934927;29;20046;-83
2022/12/09 05:09:52;;;;;;;14.43;9.10;;;;;;;6.22;100.00;99868.41;4933222;29;20490;-84
2022/12/09 05:12:20;;;;;;;12.40;8.55;;;;;;;6.22;100.00;99879.28;4935105;29;20043;-84
2022/12/09 05:14:48;;;;;;;17.25;9.98;;;;;;;6.27;100.00;99887.41;4934884;29;20059;-84
2022/12/09 05:17:16;;;;;;;14.07;9.10;;;;;;;6.33;100.00;99874.69;4934868;29;20055;-84
2022/12/09 05:19:44;;;;;;;15.38;9.63;;;;;;;6.24;100.00;99852.66;4933227;29;20047;-84
2022/12/09 05:22:16;;;;;;;14.38;9.65;;;;;;;6.28;100.00;99847.50;4934612;29;20043;-84
2022/12/09 05:24:45;;;;;;;15.57;9.40;;;;;;;6.30;100.00;99848.03;4934289;29;20055;-85
2022/12/09 05:27:14;;;;;;;15.02;9.60;;;;;;;6.26;100.00;99849.66;4934494;29;20048;-85
2022/12/09 05:29:42;;;;;;;15.02;9.48;;;;;;;6.30;100.00;99850.75;4938941;29;20051;-85
2022/12/09 05:32:10;;;;;;;18.38;10.00;;;;;;;6.29;100.00;99851.84;4939376;29;20054;-84
2022/12/09 05:34:39;;;;;;;17.23;10.13;;;;;;;6.30;100.00;99842.59;4940570;29;20049;-84
2022/12/09 05:37:11;;;;;;;15.13;9.82;;;;;;;6.26;100.00;99858.63;4941019;29;20044;-85
2022/12/09 05:39:40;;;;;;;17.92;10.10;;;;;;;6.20;100.00;99848.81;4941741;29;20047;-83
2022/12/09 05:42:09;;;;;;;15.93;10.85;;;;;;;6.26;100.00;99834.16;4940166;29;20055;-82
2022/12/09 05:44:37;;;;;;;15.38;10.07;;;;;;;6.29;100.00;99835.53;4941418;29;20047;-83
2022/12/09 05:47:05;;;;;;;15.80;9.32;;;;;;;6.24;100.00;99821.94;4938708;29;20039;-82
2022/12/09 05:49:34;;;;;;;15.48;9.63;;;;;;;6.18;100.00;99824.66;4939511;29;20047;-82
2022/12/09 05:52:02;;;;;;;17.25;9.95;;;;;;;6.27;100.00;99821.41;4941009;29;20136;-82
2022/12/09 05:54:30;;;;;;;15.80;9.75;;;;;;;6.20;100.00;99813.50;4940936;29;20059;-82
2022/12/09 05:56:59;;;;;;;12.82;9.07;;;;;;;6.14;100.00;99814.59;4939446;29;20058;-82
2022/12/09 05:59:28;;;;;;;17.70;10.68;;;;;;;6.21;100.00;99811.63;4940844;29;20043;-84
2022/12/09 06:01:56;;;;;;;15.50;10.32;;;;;;;6.22;100.00;99819.50;4939424;29;20059;-83
2022/12/09 06:04:24;;;;;;;17.90;10.00;;;;;;;6.28;100.00;99813.00;4940781;29;20063;-83
2022/12/09 06:06:52;;;;;;;17.80;10.63;;;;;;;6.27;100.00;99811.34;4939418;29;20052;-85
2022/12/09 06:09:20;;;;;;;17.08;10.50;;;;;;;6.32;100.00;99821.41;4940516;29;20070;-83
2022/12/09 06:11:48;;;;;;;16.52;11.07;;;;;;;6.23;100.00;99815.69;4940852;29;20047;-83
2022/12/09 06:14:16;;;;;;;18.25;10.65;;;;;;;6.23;100.00;99809.44;4940593;29;20055;-82
2022/12/09 06:16:45;;;;;;;22.35;12.52;;;;;;;6.27;100.00;99800.47;4940921;29;20398;-82
2022/12/09 06:19:13;;;;;;;19.40;12.52;;;;;;;6.29;100.00;99792.88;4940842;29;20051;-83
2022/12/09 06:21:41;;;;;;;19.52;12.20;;;;;;;6.38;100.00;99795.03;4939203;29;20063;-83
2022/12/09 06:24:09;;;;;;;21.23;12.57;;;;;;;6.43;100.00;99789.63;4940612;29;20055;-83
2022/12/09 06:26:37;;;;;;;20.52;13.05;;;;;;;6.43;100.00;99790.44;4939359;29;20059;-83
2022/12/09 06:29:05;;;;;;;18.88;11.68;;;;;;;6.35;100.00;99780.09;4940602;29;20043;-83
2022/12/09 06:31:34;;;;;;;16.88;10.93;;;;;;;6.29;100.00;99773.03;4939229;29;20055;-83
2022/12/09 06:34:02;;;;;;;17.75;11.23;;;;;;;6.26;100.00;99763.50;4940458;29;20054;-82
2022/12/09 06:36:31;;;;;;;20.10;12.27;;;;;;;6.33;100.00;99757.81;4939201;29;20043;-83
2022/12/09 06:39:01;;;;;;;18.42;12.10;;;;;;;6.31;100.00;99752.66;4940498;29;20043;-83
2022/12/09 06:41:39;;;;;;;22.13;12.55;;;;;;;6.37;100.00;99756.19;4937061;29;20483;-82
2022/12/09 06:44:11;;;;;;;20.77;11.95;;;;;;;6.34;100.00;99745.84;4937483;29;20055;-81
2022/12/09 06:46:46;;;;;;;24.02;13.27;;;;;;;6.33;100.00;99757.81;4936381;29;20048;-82
2022/12/09 06:49:14;;;;;;;24.23;12.00;;;;;;;6.37;100.00;99753.47;4928092;29;20118;-83
2022/12/09 06:51:43;;;;;;;18.98;10.82;;;;;;;6.40;100.00;99752.13;4934167;29;20052;-83
2022/12/09 06:54:11;;;;;;;17.85;11.55;;;;;;;6.40;100.00;99763.78;4929355;29;20052;-82
2022/12/09 06:56:40;;;;;;;17.33;11.52;;;;;;;6.42;100.00;99758.91;4951062;29;20043;-82
2022/12/09 06:59:09;;;;;;;21.98;12.93;;;;;;;6.43;100.00;99760.53;4936733;29;20054;-79
2022/12/09 07:01:38;;;;;;;18.50;12.75;;;;;;;6.38;100.00;99755.09;4936342;29;20047;-80
2022/12/09 07:04:06;;;;;;;19.80;12.75;;;;;;;6.52;100.00;99749.13;4936319;29;20043;-79
2022/12/09 07:06:40;;;;;;;21.00;11.85;;;;;;;6.44;100.00;99748.59;4935534;29;20044;-80
2022/12/09 07:09:11;;;;;;;20.55;12.75;;;;;;;6.46;100.00;99751.03;4936916;29;20047;-80
2022/12/09 07:11:41;;;;;;;21.70;12.18;;;;;;;6.43;100.00;99754.28;4936478;29;20060;-81
2022/12/09 07:14:09;;;;;;;21.48;12.75;;;;;;;6.49;100.00;99763.25;4936492;29;20483;-83
2022/12/09 07:16:38;;;;;;;21.30;11.95;;;;;;;6.38;100.00;99749.66;4936299;29;20043;-82
2022/12/09 07:19:06;;;;;;;16.77;10.95;;;;;;;6.42;100.00;99767.06;4936918;29;20048;-83
2022/12/09 07:21:35;;;;;;;18.75;11.38;;;;;;;6.55;100.00;99767.63;4936828;29;20044;-83
2022/12/09 07:24:03;;;;;;;18.83;11.35;;;;;;;6.55;100.00;99773.84;4936878;29;20055;-82
2022/12/09 07:26:32;;;;;;;22.00;12.40;;;;;;;6.50;100.00;99764.88;4936419;29;20046;-82
2022/12/09 07:29:02;;;;;;;19.63;12.15;;;;;;;6.49;100.00;99757.84;4936112;29;20040;-82
2022/12/09 07:31:30;;;;;;;21.65;12.48;;;;;;;6.53;100.00;99764.34;4936738;29;20066;-83
2022/12/09 07:33:59;;;;;;;21.85;12.45;;;;;;;6.66;100.00;99750.19;4936474;29;20044;-83
2022/12/09 07:36:29;;;;;;;25.65;14.00;;;;;;;6.62;100.00;99751.84;4936237;29;20042;-82
2022/12/09 07:39:00;;;;;;;26.90;14.75;;;;;;;6.72;100.00;99762.69;4936430;29;20399;-82
2022/12/09 07:41:28;;;;;;;22.35;13.27;;;;;;;6.65;100.00;99761.34;4936741;29;20372;-83
2022/12/09 07:43:56;;;;;;;22.58;13.27;;;;;;;6.59;100.00;99758.63;4936276;29;20403;-82
2022/12/09 07:46:27;;;;;;;22.23;13.40;;;;;;;6.59;100.00;99746.94;4936519;29;20047;-82
2022/12/09 07:48:57;;;;;;;21.92;13.43;;;;;;;6.65;100.00;99726.78;4936247;29;20402;-81
2022/12/09 07:51:25;;;;;;;22.75;13.98;;;;;;;6.63;100.00;99720.84;4936249;29;20495;-82
2022/12/09 07:53:53;;;;;;;20.23;13.32;;;;;;;6.51;100.00;99729.25;4936102;29;20055;-82
2022/12/09 07:56:22;;;;;;;21.80;12.57;;;;;;;6.56;100.00;99737.41;4934551;29;20047;-82
2022/12/09 07:58:52;;;;;;;23.95;13.88;;;;;;;6.58;100.00;99729.00;4936117;29;20048;-82
2022/12/09 08:01:23;;;;;;;21.98;13.85;;;;;;;6.52;100.00;99716.50;4936112;29;20391;-82
2022/12/09 08:03:52;;;;;;;23.50;15.18;;;;;;;6.61;100.00;99708.59;4936122;29;20074;-82
2022/12/09 08:06:24;;;;;;;22.88;14.57;;;;;;;6.59;100.00;99689.84;4935008;29;20051;-82
2022/12/09 08:08:53;;;;;;;24.73;14.27;;;;;;;6.64;100.00;99692.53;4935819;29;20048;-83
2022/12/09 08:11:24;;;;;;;25.73;14.57;;;;;;;6.69;100.00;99700.69;4935643;29;20055;-82
2022/12/09 08:13:59;;;;;;;24.63;14.02;;;;;;;6.62;100.00;99692.03;4935688;29;20039;-82
2022/12/09 08:16:33;;;;;;;25.85;14.30;;;;;;;6.61;100.00;99697.72;4935379;29;20371;-82
2022/12/09 08:19:02;;;;;;;25.60;13.57;;;;;;;6.70;100.00;99694.16;4935662;29;20398;-81
2022/12/09 08:21:31;;;;;;;28.92;16.52;;;;;;;6.70;100.00;99698.81;4935648;29;20048;-82
2022/12/09 08:24:04;;;;;;;29.60;15.88;;;;;;;6.84;100.00;99705.28;4935456;29;20054;-82
2022/12/09 08:26:33;;;;;;;29.35;15.00;;;;;;;6.87;100.00;99714.78;4935368;29;20044;-82
2022/12/09 08:29:07;;;;;;;27.27;16.10;;;;;;;6.75;100.00;99717.81;4933917;29;20518;-82
2022/12/09 08:31:36;;;;;;;31.10;16.05;;;;;;;6.82;100.00;99709.38;4935453;29;20051;-82
2022/12/09 08:34:09;;;;;;;28.85;15.45;;;;;;;6.79;100.00;99729.75;4935155;29;20059;-83
2022/12/09 08:36:37;;;;;;;27.52;14.95;;;;;;;6.70;100.00;99729.50;4934854;29;20043;-82
2022/12/09 08:39:06;;;;;;;23.90;13.27;;;;;;;6.69;100.00;99729.78;4933597;29;20043;-81
2022/12/09 08:41:35;;;;;;;22.65;13.20;;;;;;;6.65;100.00;99743.09;4931512;29;20051;-83
2022/12/09 08:44:12;;;;;;;23.58;13.32;;;;;;;6.63;100.00;99726.28;4932611;29;20470;-81
2022/12/09 08:46:43;;;;;;;26.40;13.77;;;;;;;6.45;100.00;99704.00;4934878;29;20048;-83
2022/12/09 08:49:11;;;;;;;21.00;12.40;;;;;;;6.45;100.00;99674.09;4932896;29;20036;-81
2022/12/09 08:51:40;;;;;;;18.92;11.68;;;;;;;6.57;100.00;99665.66;4933727;29;20043;-82
2022/12/09 08:54:08;;;;;;;20.52;12.98;;;;;;;6.66;100.00;99651.50;4933692;29;20068;-82
2022/12/09 08:56:36;;;;;;;20.45;13.07;;;;;;;6.74;100.00;99661.00;4933172;29;20406;-84
2022/12/09 08:59:05;;;;;;;21.13;12.48;;;;;;;7.01;100.00;99667.97;4917939;29;20059;-83
2022/12/09 09:01:34;;;;;;;28.83;14.55;;;;;;;7.08;100.00;99668.47;4934501;29;20059;-82
2022/12/09 09:04:07;;;;;;;25.27;13.85;;;;;;;7.05;100.00;99660.88;4928220;29;20501;-83
2022/12/09 09:06:38;;;;;;;20.73;12.65;;;;;;;7.15;100.00;99658.13;4931982;29;20059;-83
2022/12/09 09:09:08;;;;;;;26.30;12.52;;;;;;;7.15;100.00;99654.56;4920309;29;20048;-84
2022/12/09 09:11:36;;;;;;;17.65;10.93;;;;;;;7.08;100.00;99643.97;4914948;29;20055;-85
2022/12/09 09:14:08;;;;;;;16.35;8.98;;;;;;;7.05;100.00;99623.63;4924283;29;20044;-83
2022/12/09 09:16:39;;;;;;;17.40;9.25;;;;;;;7.06;100.00;99625.22;4933009;29;20052;-83
2022/12/09 09:19:11;;;;;;;16.20;9.27;;;;;;;7.11;100.00;99627.09;4933045;29;20136;-82
2022/12/09 09:21:39;;;;;;;13.77;8.63;;;;;;;7.14;100.00;99626.56;4929356;29;20133;-84
2022/12/09 09:24:10;;;;;;;13.25;8.43;;;;;;;7.13;100.00;99614.03;4915018;29;20062;-86
2022/12/09 09:26:41;;;;;;;15.32;9.25;;;;;;;7.16;100.00;99588.16;4931668;29;20036;-82
2022/12/09 09:29:11;;;;;;;14.23;8.25;;;;;;;7.16;100.00;99596.31;4930510;29;20051;-82
2022/12/09 09:31:40;;;;;;;12.93;7.85;;;;;;;7.39;100.00;99614.69;4926992;29;20052;-81
2022/12/09 09:34:09;;;;;;;13.43;8.20;;;;;;;7.26;100.00;99599.00;4928884;29;20125;-81
2022/12/09 09:36:38;;;;;;;13.80;7.25;;;;;;;7.30;100.00;99615.56;4926584;29;20380;-81
2022/12/09 09:39:07;;;;;;;13.38;7.60;;;;;;;7.30;100.00;99613.69;4919967;29;20043;-81
2022/12/09 09:42:00;;;;;;;16.05;9.20;;;;;;;7.22;100.00;99615.06;4932622;29;20036;-82
2022/12/09 09:44:36;;;;;;;53.80;23.98;;;;;;;7.32;100.00;99621.53;4933132;29;20050;-80
2022/12/09 09:47:12;;;;;;;52.80;20.08;;;;;;;7.38;100.00;99615.00;4933154;29;20048;-81
2022/12/09 09:50:28;;;;;;;22.05;12.93;;;;;;;7.36;100.00;99625.31;4932673;29;20490;-79
2022/12/09 09:52:57;;;;;;;25.45;18.67;;;;;;;7.48;100.00;99614.91;4928378;29;20435;-80
2022/12/09 09:55:51;;;;;;;15.38;9.70;;;;;;;7.33;100.00;99602.22;4932766;29;20054;-81
2022/12/09 09:58:37;;;;;;;18.58;11.70;;;;;;;7.39;100.00;99603.78;4932204;29;20058;-80
2022/12/09 10:01:12;;;;;;;12.60;8.98;;;;;;;7.30;100.00;99591.91;4933276;29;20040;-80
2022/12/09 10:04:00;;;;;;;10.55;7.93;;;;;;;7.37;100.00;99592.41;4932676;29;20071;-80
2022/12/09 10:07:14;;;;;;;6.15;4.32;;;;;;;7.42;99.40;99574.41;4924336;29;20505;-78
2022/12/09 10:10:24;;;;;;;7.82;5.57;;;;;;;7.28;100.00;99566.84;4927165;29;20059;-78
2022/12/09 10:13:10;;;;;;;5.60;4.30;;;;;;;7.22;100.00;99574.25;4913340;29;20048;-78
2022/12/09 10:16:19;;;;;;;8.55;6.78;;;;;;;7.13;100.00;99573.22;4929002;29;20517;-77
2022/12/09 10:19:09;;;;;;;7.90;5.10;;;;;;;7.01;100.00;99557.25;4935553;29;20054;-77
2022/12/09 10:21:42;;;;;;;4.97;3.53;;;;;;;7.03;100.00;99543.38;4932824;29;20047;-75
2022/12/09 10:24:40;;;;;;;4.70;3.80;;;;;;;7.07;100.00;99550.69;4934128;29;20056;-76
2022/12/09 10:27:29;;;;;;;6.53;3.50;;;;;;;6.89;100.00;99535.81;4932752;29;20128;-75
2022/12/09 10:30:01;;;;;;;3.58;2.78;;;;;;;7.05;100.00;99543.91;4935431;29;20051;-76
2022/12/09 10:32:32;;;;;;;6.55;3.30;;;;;;;6.97;100.00;99529.78;4933418;29;20051;-75
2022/12/09 10:35:16;;;;;;;3.92;3.50;;;;;;;6.96;100.00;99528.19;4933158;29;20052;-75
2022/12/09 10:37:46;;;;;;;3.88;3.28;;;;;;;6.97;100.00;99532.53;4934911;29;20052;-76
2022/12/09 10:40:35;;;;;;;4.05;3.20;;;;;;;7.14;100.00;99531.34;4935701;29;20569;-75
2022/12/09 10:43:34;;;;;;;3.25;2.95;;;;;;;7.08;99.92;99524.25;4935261;29;20051;-76
2022/12/09 10:46:09;;;;;;;9.93;4.60;;;;;;;7.08;100.00;99506.03;4934653;29;20247;-75
2022/12/09 10:48:48;;;;;;;7.80;4.43;;;;;;;7.18;100.00;99491.56;4941071;29;20121;-74
2022/12/09 10:51:24;;;;;;;5.82;3.83;;;;;;;7.13;99.15;99477.97;4935008;29;20051;-75
2022/12/09 10:53:57;;;;;;;3.53;3.22;;;;;;;7.21;99.27;99460.25;4933219;29;20071;-76
2022/12/09 10:56:31;;;;;;;4.35;3.47;;;;;;;6.98;100.00;99433.50;4930415;29;20051;-75
2022/12/09 10:59:33;;;;;;;3.80;3.45;;;;;;;6.98;100.00;99438.94;4927995;29;20052;-77
2022/12/09 11:02:20;;;;;;;3.92;3.30;;;;;;;7.07;100.00;99435.59;4892619;29;20059;-76
2022/12/09 11:04:49;;;;;;;6.18;4.13;;;;;;;7.08;100.00;99432.59;4933777;29;20047;-76
2022/12/09 11:07:21;;;;;;;6.57;4.38;;;;;;;7.19;99.96;99432.50;4933063;29;20055;-75
2022/12/09 11:09:53;;;;;;;6.07;4.25;;;;;;;7.10;100.00;99443.19;4934480;29;20126;-75
2022/12/09 11:12:40;;;;;;;10.93;5.38;;;;;;;7.04;100.00;99438.91;4932904;29;20063;-75
2022/12/09 11:15:11;;;;;;;11.15;6.38;;;;;;;6.99;100.00;99446.00;4926999;29;20040;-75
2022/12/09 11:17:57;;;;;;;6.95;4.68;;;;;;;6.94;100.00;99456.91;4933200;29;20040;-75
2022/12/09 11:20:28;;;;;;;5.97;4.80;;;;;;;7.06;100.00;99458.47;4928373;29;20047;-74
2022/12/09 11:22:59;;;;;;;7.70;5.03;;;;;;;7.10;100.00;99454.88;4913666;29;20059;-75
2022/12/09 11:25:31;;;;;;;6.47;5.15;;;;;;;7.12;100.00;99441.81;4918795;29;20407;-75
2022/12/09 11:28:28;;;;;;;13.30;5.07;;;;;;;7.10;100.00;99416.00;4899953;29;20052;-75
2022/12/09 11:31:02;;;;;;;5.72;4.35;;;;;;;7.02;100.00;99381.22;4895318;29;20055;-76
2022/12/09 11:33:57;;;;;;;4.70;4.27;;;;;;;7.06;100.00;99355.91;4911705;29;20070;-75
2022/12/09 11:36:30;;;;;;;5.63;4.63;;;;;;;7.06;100.00;99352.34;4926313;29;20039;-75
2022/12/09 11:39:17;;;;;;;8.13;5.15;;;;;;;6.89;100.00;99350.06;4926648;29;20380;-75
2022/12/09 11:44:51;;;;;;;6.93;4.75;;;;;;;6.59;100.00;99372.59;4900444;29;20075;-75
2022/12/09 11:47:32;;;;;;;7.35;4.93;;;;;;;6.99;100.00;99372.53;4918783;29;20403;-76
2022/12/09 11:50:23;;;;;;;18.63;10.48;;;;;;;7.04;100.00;99366.25;4918066;29;20261;-76